Terminal Aerodrome Forecast
Issued by NWS Portland, OR

Home | Current Version | Previous Version | Text Only | Print | Product List | Glossary On
Versions: 1 2 3 4 5 6 7 8 9 10 11 12 13 14 15 16 17 18 19 20 21 22 23 24 25 26 27 28 29 30 31 32 33 34 35 36 37 38 39 40
000
FTUS46 KPQR 290535
TAFHIO
TAF
KHIO 290535Z 2906/3006 34005KT P6SM -SHRA BKN035 OVC050
     FM291300 23006KT P6SM -SHRA BKN025 BKN045 OVC060
     FM291800 31007KT P6SM VCSH SCT030 BKN050
     FM292100 32007KT P6SM SCT050
     FM300400 VRB03KT P6SM SKC=

USA.gov is the U.S. government's official web portal to all federal, state and local government web resources and services.